Tiempo atmosférico en la estación meteorológica de Fuente De Piedra, Málaga (423 m.)



Fecha
DESCASC
Temp. máxima en grados centígrados (hora)
DESCASC
Temp. mínima en grados centígrados (hora)
DESCASC
Temp. media en grados centígrados
DESCASC
Racha de viento máxima en m/sg (hora)
DESCASC
Velocidad máxima media en intervalos de 10 minutos(hora)
DESCASC
Precipitaciones diarias en mm
DESCASC
Precipitaciones de 00:00 a 06:00 en mm
DESCASC
Precipitaciones de 06:00 a 12:00 en mm
DESCASC
Precipitaciones de 12:00 a 18:00 en mm
DESCASC
Precipitaciones de 18:00 a 24:00 en mm
DESCASC
18-01-2018 14.1 (14:20) 3.2 (02:50) 8.7 10.83 (15:10) 7.5 (11:50) 0 0 0 0 0
17-01-2018 15.4 (15:20) 1.2 (08:00) 8.3 5 (16:10) 3.61 (16:50) 0 0 0 0 0
16-01-2018 13.9 (17:10) -1 (08:10) 6.4 5.28 (14:50) 3.33 (15:00) 0.2 0 0.2 0 0
15-01-2018 11.1 (16:50) 0.5 (05:40) 5.8 6.39 (14:10) 3.89 (14:10) 0.2 0.2 0 0 0
14-01-2018 8.6 (17:20) 2 (00:00) 5.3 7.22 (20:10) 4.44 (20:10) 8.4 0 1 6.6 0.8
13-01-2018 9.6 (14:50) 2 (00:00) 5.8 7.5 (19:20) 5.28 (19:20) 0.6 0 0 0.6 0
12-01-2018 14.1 (16:40) 0.2 (00:00) 7.2 5 (18:00) 3.61 (18:00) 0 0 0 0 0
11-01-2018 11.5 (17:30) 3.9 (00:00) 7.7 12.5 (16:30) 8.33 (16:30) 0 0 0 0 0
10-01-2018 13.9 (17:40) 9 (00:00) 11.4 15.28 (22:10) 9.44 (22:20) 0.2 0 0.2 0 0
09-01-2018 9.9 (23:59) -0.6 (-00:0) 4.6 11.67 (23:00) 7.22 (23:00) 2.6 0 0 0.4 2.2
08-01-2018 8 (15:20) 2.4 (00:00) 5.2 8.61 (11:20) 5.56 (11:20) 7 0 6 0.4 0.6
07-01-2018 5.7 (15:50) -0.6 (-00:0) 2.5 5.83 (16:30) 3.61 (00:40) 0.2 0 0 0.2 0
06-01-2018 11.2 (04:20) 3.8 (00:00) 7.5 18.33 (04:40) 11.11 (04:40) 22.6 6.2 16 0.4 0
05-01-2018 15.2 (15:50) 9.7 (00:00) 12.4 11.39 (21:10) 8.06 (19:30) 0 0 0 0 0
04-01-2018 11.7 (15:50) 4.4 (05:20) 8 6.39 (14:30) 4.17 (14:30) 0 0 0 0 0
03-01-2018 14.3 (16:10) 4.6 (00:00) 9.5 7.5 (17:10) 5.28 (17:10) 0 0 0 0 0
02-01-2018 13.1 (15:50) 0.4 (00:00) 6.8 8.89 (16:00) 5.83 (16:00) 0 0 0 0 0
01-01-2018 14.5 (14:10) 2.5 (00:00) 8.5 7.22 (17:20) 5 (17:20) 0 0 0 0 0
31-12-2017 14.4 (13:50) 4.6 (00:00) 9.5 10 (22:00) 6.67 (21:30) 0.2 0 0.2 0 0
30-12-2017 17.9 (15:50) 4.7 (00:00) 11.3 3.33 (15:00) 1.94 (18:10) 0 0 0 0 0
29-12-2017 14.3 (15:50) 10.5 (00:00) 12.4 9.17 (01:20) 5.28 (14:00) 0.6 0.2 0.4 0 0
28-12-2017 14.4 (17:10) 9.8 (00:00) 12.1 14.17 (05:40) 8.89 (10:00) 0 0 0 0 0
27-12-2017 13 (16:10) 8.5 (00:00) 10.8 19.72 (08:20) 12.78 (08:10) 6 0.4 4.4 0.2 1
26-12-2017 11.9 (13:20) 5.8 (00:00) 8.8 9.17 (15:40) 5.83 (12:20) 6.6 1.2 5.2 0.2 0
25-12-2017 13.9 (13:20) 2.5 (00:00) 8.2 5 (16:30) 3.33 (01:20) 0 0 0 0 0
24-12-2017 14.8 (14:20) 6.3 (00:00) 10.6 11.39 (13:50) 7.5 (14:00) 0 0 0 0 0

Gráficas

Temp. máximas Temp. mínimas Temp. medias Precipitaciones Rachas de viento máximas Velocidades máximas media en intervalos de 10 minutos

Datos horarios

Fecha y hora oficial Temperatura (ºC) Velocidad del viento (km/h) Dirección del viento Racha (km/h) Dirección de racha Precipitación (mm) Presión (hPa) Tendencia (hPa) Humedad (%)
2018-01-22 23:00:00 6.6 2 Norte 4 Sudeste 0 -- -- 91
2018-01-22 22:00:00 8 4 Nordeste 6 Norte 0 -- -- 89
2018-01-22 21:00:00 10.1 6 Nordeste 8 Norte 0 -- -- 86
2018-01-22 20:00:00 12 7 Nordeste 9 Nordeste 0 -- -- 79
2018-01-22 19:00:00 13.7 4 Nordeste 10 Norte 0 -- -- 70
2018-01-22 18:00:00 16.2 6 Norte 18 Norte 0 -- -- 63
2018-01-22 17:00:00 17.3 12 Norte 17 Norte 0 -- -- 60
2018-01-22 16:00:00 17.7 13 Norte 18 Norte 0 -- -- 59
2018-01-22 15:00:00 17.7 11 Norte 17 Norte 0 -- -- 59
2018-01-22 14:00:00 15.6 3 Sur 6 Sur 0 -- -- 68
2018-01-22 13:00:00 11.9 3 Sudoeste 6 Sudoeste 0 -- -- 92
2018-01-22 12:00:00 8.2 2 Sudoeste 4 Sudoeste 0 -- -- 98
2018-01-22 11:00:00 4.7 2 Sudoeste 4 Sudoeste 0 -- -- 97
2018-01-22 10:00:00 3 0 Calma 4 Norte 0 -- -- 98
2018-01-22 09:00:00 2.3 0 Calma 3 Sudeste 0 -- -- 96
2018-01-22 08:00:00 2.4 2 Sur 4 Sur 0 -- -- 96
2018-01-22 07:00:00 2.2 2 Sudeste 3 Sudeste 0 -- -- 96
2018-01-22 06:00:00 2.4 4 Noroeste 5 Norte 0 -- -- 96
2018-01-22 05:00:00 2.3 3 Noroeste 5 Sudoeste 0 -- -- 96
2018-01-22 04:00:00 4.6 5 Sudeste 8 Sudeste 0 -- -- 95
2018-01-22 03:00:00 4.6 2 Norte 5 Sur 0 -- -- 95
2018-01-22 02:00:00 4.4 0 Calma 5 Norte 0 -- -- 94
2018-01-22 01:00:00 5.7 0 Calma 5 Sur 0 -- -- 94
2018-01-22 00:00:00 5.9 4 Sur 9 Sur 0 -- -- 93
2018-01-21 23:00:00 6.9 5 Norte 9 Noroeste 0 -- -- 90
2018-01-21 22:00:00 8.1 0 Calma 7 Nordeste 0 -- -- 88
2018-01-21 21:00:00 9.2 6 Nordeste 14 Norte 0 -- -- 85
2018-01-21 20:00:00 10.4 7 Norte 12 Noroeste 0 -- -- 81
2018-01-21 19:00:00 11.2 8 Norte 17 Norte 0 -- -- 78
2018-01-21 18:00:00 13.6 12 Norte 19 Norte 0 -- -- 69
2018-01-21 17:00:00 14.7 12 Norte 17 Norte 0 -- -- 65
2018-01-21 16:00:00 14.7 13 Norte 18 Norte 0 -- -- 66
2018-01-21 15:00:00 14 12 Norte 19 Norte 0 -- -- 67
2018-01-21 14:00:00 13.3 11 Norte 18 Norte 0 -- -- 69
2018-01-21 13:00:00 12.8 9 Norte 15 Norte 0 -- -- 68
2018-01-21 12:00:00 10.9 0 Calma 5 Sur 0 -- -- 85
2018-01-21 11:00:00 7.6 2 Sudoeste 5 Sudoeste 0 -- -- 96
2018-01-21 10:00:00 5.2 3 Sur 5 Sudeste 0 -- -- 98
2018-01-21 09:00:00 2.3 3 Este 8 Sur 0 -- -- 97
2018-01-21 08:00:00 2 5 Sudeste 10 Nordeste 0 -- -- 96
2018-01-21 07:00:00 1.8 5 Norte 7 Norte 0 -- -- 95
2018-01-21 06:00:00 3.6 2 Sur 5 Sudoeste 0 -- -- 94
2018-01-21 05:00:00 4.2 2 Sur 2 Sudoeste 0 -- -- 94
2018-01-21 04:00:00 4.6 2 Nordeste 6 Norte 0 -- -- 94
2018-01-21 03:00:00 4.9 4 Norte 5 Noroeste 0 -- -- 94
2018-01-21 02:00:00 4.9 2 Sudeste 10 Nordeste 0 -- -- 93
2018-01-21 01:00:00 5.1 5 Nordeste 6 Nordeste 0 -- -- 93
2018-01-21 00:00:00 6.7 0 Calma 9 Norte 0 -- -- 91
2018-01-20 23:00:00 6.1 7 Norte 10 Este 0 -- -- 88
2018-01-20 22:00:00 8.3 5 Este 12 Norte 0 -- -- 86
2018-01-20 21:00:00 9.3 9 Norte 14 Noroeste 0 -- -- 85
2018-01-20 20:00:00 9.9 7 Norte 9 Norte 0 -- -- 80
2018-01-20 19:00:00 11.5 5 Norte 12 Norte 0 -- -- 74
2018-01-20 18:00:00 14 10 Noroeste 15 Oeste 0 -- -- 66
2018-01-20 17:00:00 15.3 12 Noroeste 17 Noroeste 0 -- -- 61
2018-01-20 16:00:00 15.6 8 Norte 17 Norte 0 -- -- 62
2018-01-20 15:00:00 15.7 7 Norte 14 Norte 0 -- -- 61
2018-01-20 14:00:00 14.2 3 Sudoeste 8 Sudoeste 0 -- -- 68
2018-01-20 13:00:00 11.4 3 Sudoeste 8 Sudoeste 0 -- -- 81
2018-01-20 12:00:00 8.1 6 Sudoeste 8 Sudoeste 0 -- -- 92
2018-01-20 11:00:00 5.9 0 Calma 3 Norte 0 -- -- 97
2018-01-20 10:00:00 2.4 0 Calma 4 Sur 0 -- -- 96
2018-01-20 09:00:00 1.9 4 Sur 6 Sudeste 0 -- -- 97
2018-01-20 08:00:00 1.5 2 Noroeste 7 Norte 0 -- -- 96
2018-01-20 07:00:00 2.7 3 Nordeste 5 Sudeste 0 -- -- 94
2018-01-20 06:00:00 2.2 2 Sudoeste 4 Sudoeste 0 -- -- 95
2018-01-20 05:00:00 2.5 0 Calma 5 Sur 0 -- -- 94
2018-01-20 04:00:00 3 3 Sur 9 Nordeste 0 -- -- 93
2018-01-20 03:00:00 3.4 2 Norte 3 Norte 0 -- -- 93
2018-01-20 02:00:00 3.4 2 Sur 5 Norte 0 -- -- 92
2018-01-20 01:00:00 5.4 0 Calma 4 Norte 0 -- -- 93
2018-01-20 00:00:00 5 0 Calma 8 Sur 0 -- -- 91
2018-01-19 23:00:00 5.9 5 Sur 8 Norte 0 -- -- 87
2018-01-19 22:00:00 8.3 3 Norte 7 Norte 0 -- -- 83
2018-01-19 21:00:00 8.9 5 Norte 11 Norte 0 -- -- 81
2018-01-19 20:00:00 9.3 8 Nordeste 10 Noroeste 0 -- -- 80
2018-01-19 19:00:00 11.5 8 Noroeste 14 Noroeste 0 -- -- 72
2018-01-19 18:00:00 14.5 9 Noroeste 13 Noroeste 0 -- -- 62
2018-01-19 17:00:00 15 6 Noroeste 17 Norte 0 -- -- 59
2018-01-19 16:00:00 15 14 Norte 22 Norte 0 -- -- 61
2018-01-19 15:00:00 15.5 12 Norte 18 Norte 0 -- -- 54
2018-01-19 14:00:00 14.3 3 Sudoeste 6 Oeste 0 -- -- 61
2018-01-19 13:00:00 12.5 2 Sur 6 Sudoeste 0 -- -- 71
2018-01-19 12:00:00 9.6 3 Sur 5 Sur 0 -- -- 90
2018-01-19 11:00:00 6.9 0 Calma 4 Nordeste 0 -- -- 95
2018-01-19 10:00:00 4.9 2 Norte 4 Norte 0 -- -- 95
2018-01-19 09:00:00 4.5 3 Sudeste 4 Sudeste 0 -- -- 94
2018-01-19 08:00:00 4.6 0 Calma 7 Norte 0 -- -- 94
2018-01-19 07:00:00 5.4 5 Sudeste 7 Este 0 -- -- 93
2018-01-19 06:00:00 5.2 5 Noroeste 9 Noroeste 0 -- -- 93
2018-01-19 05:00:00 5.9 2 Sudoeste 9 Norte 0 -- -- 92
2018-01-19 04:00:00 6.5 4 Sur 9 Sudeste 0 -- -- 92
2018-01-19 03:00:00 5.9 3 Norte 9 Norte 0 -- -- 92
2018-01-19 02:00:00 6.6 6 Sudeste 10 Sudeste 0 -- -- 92
2018-01-19 01:00:00 6.3 7 Norte 9 Norte 0 -- -- 91
2018-01-19 00:00:00 6.7 5 Sur 9 Sur 0 -- -- 90
2018-01-18 23:00:00 6.6 4 Nordeste 5 Norte 0 -- -- 88
2018-01-18 22:00:00 7 3 Nordeste 8 Noroeste 0 -- -- 86
2018-01-18 21:00:00 9.1 0 Calma 4 Norte 0 -- -- 75
2018-01-18 20:00:00 9.7 3 Norte 9 Sudeste 0 -- -- 72
2018-01-18 19:00:00 10.5 9 Sudeste 15 Sur 0 -- -- 69
2018-01-18 18:00:00 11.8 14 Sur 26 Sur 0 -- -- 63
2018-01-18 17:00:00 12.8 17 Sur 31 Sur 0 -- -- 59
2018-01-18 16:00:00 13.6 18 Sur 39 Sur 0 -- -- 57
2018-01-18 15:00:00 13.9 22 Sur 33 Sur 0 -- -- 60
2018-01-18 14:00:00 13.9 17 Sur 28 Sur 0 -- -- 65
2018-01-18 13:00:00 13.3 15 Sur 34 Sur 0 -- -- 70
2018-01-18 12:00:00 13.6 24 Sur 37 Sudeste 0 -- -- 71
2018-01-18 11:00:00 11.7 16 Sur 32 Sur 0 -- -- 80
2018-01-18 10:00:00 10.9 21 Sur 32 Sur 0 -- -- 82
2018-01-18 09:00:00 7.8 4 Este 21 Sur 0 -- -- 88
2018-01-18 08:00:00 7.1 6 Sudeste 18 Sur 0 -- -- 87
2018-01-18 07:00:00 7.5 15 Sur 22 Sudeste 0 -- -- 83
2018-01-18 06:00:00 8.3 19 Sur 31 Sur 0 -- -- 83
2018-01-18 05:00:00 6.8 5 Sudoeste 23 Sudeste 0 -- -- 90
2018-01-18 04:00:00 4.6 10 Sudeste 13 Sur 0 -- -- 97
2018-01-18 03:00:00 3.4 0 Calma 4 Este 0 -- -- 95
2018-01-18 02:00:00 5.5 3 Nordeste 5 Noroeste 0 -- -- 96
2018-01-18 01:00:00 5 3 Norte 7 Oeste 0 -- -- 95
2018-01-18 00:00:00 4.9 5 Sur 10 Sudoeste 0 -- -- 93
2018-01-17 23:00:00 5.9 8 Sur 10 Sudoeste 0 -- -- 93
2018-01-17 22:00:00 6.8 2 Sur 6 Sudoeste 0 -- -- 89
2018-01-17 21:00:00 7.8 3 Nordeste 10 Noroeste 0 -- -- 88
2018-01-17 20:00:00 10.1 3 Norte 7 Norte 0 -- -- 80
2018-01-17 19:00:00 13 3 Norte 10 Norte 0 -- -- 69
2018-01-17 18:00:00 14.7 7 Norte 14 Norte 0 -- -- 65
2018-01-17 17:00:00 15.2 11 Norte 18 Norte 0 -- -- 64
2018-01-17 16:00:00 15.2 8 Norte 15 Norte 0 -- -- 62
2018-01-17 15:00:00 15 6 Nordeste 12 Norte 0 -- -- 62
2018-01-17 14:00:00 13.3 5 Oeste 10 Norte 0 -- -- 65
2018-01-17 13:00:00 11.5 5 Norte 10 Nordeste 0 -- -- 68
2018-01-17 12:00:00 8.7 4 Norte 7 Norte 0 -- -- 86
2018-01-17 11:00:00 5.6 0 Calma 5 Sur 0 -- -- 94
2018-01-17 10:00:00 4.2 0 Calma 5 Nordeste 0 -- -- 97
2018-01-17 09:00:00 1.8 3 Nordeste 4 Norte 0 -- -- 96
2018-01-17 08:00:00 1.2 0 Calma 6 Sudoeste 0 -- -- 94
2018-01-17 07:00:00 2.6 4 Sudoeste 6 Este 0 -- -- 93
2018-01-17 06:00:00 3.5 3 Este 8 Nordeste 0 -- -- 95
2018-01-17 05:00:00 2.4 4 Norte 10 Nordeste 0 -- -- 94
2018-01-17 04:00:00 2.4 4 Nordeste 5 Norte 0 -- -- 94
2018-01-17 03:00:00 2.4 0 Calma 5 Sur 0 -- -- 93
2018-01-17 02:00:00 3.3 0 Calma 8 Sur 0 -- -- 93
2018-01-17 01:00:00 3.7 5 Sur 10 Norte 0 -- -- 91
2018-01-17 00:00:00 4.6 6 Sur 10 Sur 0 -- -- 90
2018-01-16 23:00:00 5.6 2 Nordeste 4 Sudeste 0 -- -- 85
2018-01-16 22:00:00 6.2 3 Nordeste 5 Norte 0 -- -- 83
2018-01-16 21:00:00 7.7 2 Sur 10 Norte 0 -- -- 75
2018-01-16 20:00:00 8 9 Norte 12 Norte 0 -- -- 78
2018-01-16 19:00:00 10 10 Norte 12 Norte 0 -- -- 69
2018-01-16 18:00:00 12.8 8 Norte 13 Noroeste 0 -- -- 61
2018-01-16 17:00:00 13.8 7 Norte 16 Norte 0 -- -- 56
2018-01-16 16:00:00 13.7 10 Norte 16 Norte 0 -- -- 50
2018-01-16 15:00:00 13.3 12 Norte 19 Norte 0 -- -- 46
2018-01-16 14:00:00 12.6 6 Norte 14 Norte 0 -- -- 55
2018-01-16 13:00:00 10.1 2 Sudoeste 7 Sur 0 -- -- 69
2018-01-16 12:00:00 7.1 2 Sudoeste 4 Sur 0 -- -- 89
2018-01-16 11:00:00 4 0 Calma 5 Sudoeste 0 -- -- 96
2018-01-16 10:00:00 2.1 4 Sur 6 Sur 0.2 -- -- 98
2018-01-16 09:00:00 -0.2 0 Calma 2 Norte 0 -- -- 97
2018-01-16 08:00:00 -0.9 0 Calma 3 Norte 0 -- -- 96
2018-01-16 07:00:00 -0.3 2 Sudeste 4 Sudeste 0 -- -- 96
2018-01-16 06:00:00 -0.1 2 Noroeste 8 Norte 0 -- -- 96
2018-01-16 05:00:00 0.8 2 Sudeste 5 Sudeste 0 -- -- 96
2018-01-16 04:00:00 0.4 2 Sudoeste 4 Sudeste 0 -- -- 95
2018-01-16 03:00:00 0.5 2 Norte 4 Norte 0 -- -- 94
2018-01-16 02:00:00 1.4 0 Calma 4 Sur 0 -- -- 94
2018-01-16 01:00:00 2.2 3 Sur 4 Sur 0 -- -- 94
2018-01-16 00:00:00 2.7 2 Sudoeste 5 Sudoeste 0 -- -- 92
2018-01-15 23:00:00 4 2 Sudeste 7 Oeste 0 -- -- 92
2018-01-15 22:00:00 4.6 0 Calma 5 Sudeste 0 -- -- 88
2018-01-15 21:00:00 5.3 5 Sudeste 7 Norte 0 -- -- 86
2018-01-15 20:00:00 6.4 6 Norte 11 Norte 0 -- -- 84
2018-01-15 19:00:00 7.6 8 Norte 10 Norte 0 -- -- 79
2018-01-15 18:00:00 10.1 8 Norte 12 Norte 0 -- -- 71
2018-01-15 17:00:00 11.1 4 Norte 10 Norte 0 -- -- 63
2018-01-15 16:00:00 10.5 6 Norte 12 Norte 0 -- -- 69
2018-01-15 15:00:00 9.4 7 Norte 23 Noroeste 0 -- -- 76
2018-01-15 14:00:00 8.4 11 Norte 16 Norte 0 -- -- 89
2018-01-15 13:00:00 5.5 0 Calma 8 Sudeste 0 -- -- 98
2018-01-15 12:00:00 3 3 Sudeste 6 Nordeste 0 -- -- 99
2018-01-15 11:00:00 1.7 2 Sur 8 Sur 0 -- -- 98
2018-01-15 10:00:00 1.1 0 Calma 4 Noroeste 0 -- -- 98
2018-01-15 09:00:00 1 3 Noroeste 6 Nordeste 0 -- -- 97
2018-01-15 08:00:00 1.5 3 Nordeste 10 Norte 0 -- -- 97
2018-01-15 07:00:00 1.6 7 Nordeste 10 Norte 0 -- -- 97
2018-01-15 06:00:00 1.5 9 Norte 14 Norte 0 -- -- 97
2018-01-15 05:00:00 1.4 0 Calma 4 Oeste 0 -- -- 96
2018-01-15 04:00:00 1.8 4 Sudeste 8 Nordeste 0 -- -- 96
2018-01-15 03:00:00 2.7 4 Nordeste 6 Nordeste 0 -- -- 96
2018-01-15 02:00:00 2.9 2 Este 7 Nordeste 0 -- -- 96
2018-01-15 01:00:00 3.3 4 Nordeste 5 Norte 0.2 -- -- 96
2018-01-15 00:00:00 3.9 3 Noroeste 5 Norte 0 -- -- 95
2018-01-14 23:00:00 3.7 0 Calma 5 Noroeste 0 -- -- 95
2018-01-14 22:00:00 3.6 4 Norte 7 Nordeste 0 -- -- 94
2018-01-14 21:00:00 4.8 6 Nordeste 26 Norte 0.8 -- -- 93
2018-01-14 20:00:00 5.7 5 Noroeste 11 Noroeste 0 -- -- 91
2018-01-14 19:00:00 6.4 5 Norte 13 Noroeste 0 -- -- 87
2018-01-14 18:00:00 8.1 5 Oeste 15 Noroeste 0 -- -- 80
2018-01-14 17:00:00 8 14 Noroeste 24 Noroeste 0 -- -- 87
2018-01-14 16:00:00 7.5 13 Noroeste 21 Noroeste 0 -- -- 93
2018-01-14 15:00:00 7.8 8 Noroeste 12 Noroeste 0 -- -- 97
2018-01-14 14:00:00 7.4 4 Sudoeste 18 Noroeste 4.2 -- -- 98
2018-01-14 13:00:00 7.1 0 Calma 6 Sur 2.4 -- -- 97
2018-01-14 12:00:00 6.6 0 Calma 8 Noroeste 0.4 -- -- 97
2018-01-14 11:00:00 5.2 3 Noroeste 5 Noroeste 0.2 -- -- 98
2018-01-14 10:00:00 4.1 0 Calma 4 Norte 0 -- -- 97
2018-01-14 09:00:00 3.4 2 Sur 4 Sudeste 0.4 -- -- 98
2018-01-14 08:00:00 2.7 2 Oeste 4 Oeste 0 -- -- 96
2018-01-14 07:00:00 2.7 0 Calma 5 Norte 0 -- -- 98
2018-01-14 06:00:00 2.4 3 Sudoeste 5 Sur 0 -- -- 97
2018-01-14 05:00:00 2.2 0 Calma 5 Sur 0 -- -- 96
2018-01-14 04:00:00 2.6 0 Calma 6 Sudoeste 0 -- -- 96
2018-01-14 03:00:00 2.7 2 Nordeste 6 Sudeste 0 -- -- 95
2018-01-14 02:00:00 3.6 0 Calma 3 Sudeste 0 -- -- 95
2018-01-14 01:00:00 4.3 0 Calma 5 Sur 0 -- -- 95
2018-01-14 00:00:00 5.2 4 Sur 7 Este 0 -- -- 93
2018-01-13 23:00:00 6.3 0 Calma 4 Este 0 -- -- 93
2018-01-13 22:00:00 6.4 0 Calma 20 Oeste 0 -- -- 92
2018-01-13 21:00:00 7 13 Oeste 20 Oeste 0 -- -- 93
2018-01-13 20:00:00 7.6 4 Norte 27 Noroeste 0 -- -- 92
2018-01-13 19:00:00 8.6 14 Noroeste 21 Noroeste 0 -- -- 91
2018-01-13 18:00:00 8.4 0 Calma 13 Sudeste 0 -- -- 88
2018-01-13 17:00:00 8.4 0 Calma 12 Este 0 -- -- 89
2018-01-13 16:00:00 8.2 3 Norte 26 Noroeste 0.6 -- -- 85
2018-01-13 15:00:00 9.6 0 Calma 8 Oeste 0 -- -- 71
2018-01-13 14:00:00 9.3 6 Sudoeste 11 Sur 0 -- -- 70
2018-01-13 13:00:00 8.6 6 Sur 9 Sur 0 -- -- 79
2018-01-13 12:00:00 6.2 0 Calma 4 Norte 0 -- -- 93
2018-01-13 11:00:00 4.7 2 Norte 4 Nordeste 0 -- -- 95
2018-01-13 10:00:00 2.9 2 Noroeste 5 Noroeste 0 -- -- 96
2018-01-13 09:00:00 2.3 3 Oeste 8 Sudeste 0 -- -- 95
2018-01-13 08:00:00 2.5 0 Calma 6 Este 0 -- -- 95
2018-01-13 07:00:00 2.5 6 Sudeste 7 Sudeste 0 -- -- 96
2018-01-13 06:00:00 2.1 0 Calma 4 Norte 0 -- -- 95
2018-01-13 05:00:00 3.1 0 Calma 4 Noroeste 0 -- -- 96
2018-01-13 04:00:00 2.1 0 Calma 4 Noroeste 0 -- -- 95
2018-01-13 03:00:00 2.8 3 Este 6 Oeste 0 -- -- 95
2018-01-13 02:00:00 2.7 3 Sudoeste 5 Sudeste 0 -- -- 94
2018-01-13 01:00:00 2.9 5 Sudeste 8 Sudeste 0 -- -- 94
2018-01-13 00:00:00 3.2 0 Calma 4 Oeste 0 -- -- 93
2018-01-12 23:00:00 3.8 0 Calma 4 Sudeste 0 -- -- 91
2018-01-12 22:00:00 4.2 0 Calma 5 Norte 0 -- -- 89
2018-01-12 21:00:00 6.3 4 Este 4 Este 0 -- -- 85
2018-01-12 20:00:00 7.2 0 Calma 8 Nordeste 0 -- -- 82
2018-01-12 19:00:00 8 7 Nordeste 15 Norte 0 -- -- 79
2018-01-12 18:00:00 9.8 13 Norte 18 Norte 0 -- -- 72
2018-01-12 17:00:00 13.7 3 Norte 4 Noroeste 0 -- -- 41
2018-01-12 16:00:00 13.1 2 Sudoeste 8 Oeste 0 -- -- 40
2018-01-12 15:00:00 12.4 6 Sudoeste 9 Sudoeste 0 -- -- 47
2018-01-12 14:00:00 11.7 4 Sudoeste 15 Sudoeste 0 -- -- 55
2018-01-12 13:00:00 9.5 4 Sudoeste 8 Sudoeste 0 -- -- 71
2018-01-12 12:00:00 6.9 2 Oeste 5 Sudoeste 0 -- -- 85
2018-01-12 11:00:00 4.3 3 Sudoeste 6 Sudoeste 0 -- -- 95
2018-01-12 10:00:00 1.8 3 Sudoeste 7 Nordeste 0 -- -- 96
2018-01-12 09:00:00 1.6 4 Norte 6 Norte 0 -- -- 95
2018-01-12 08:00:00 0.2 2 Norte 3 Noroeste 0 -- -- 94
2018-01-12 07:00:00 0.9 0 Calma 4 Sudoeste 0 -- -- 93
2018-01-12 06:00:00 1.6 2 Sur 5 Este 0 -- -- 92
2018-01-12 05:00:00 2.5 4 Este 9 Norte 0 -- -- 92
2018-01-12 04:00:00 3.8 3 Nordeste 9 Este 0 -- -- 91
2018-01-12 03:00:00 4 2 Este 5 Este 0 -- -- 91
2018-01-12 02:00:00 4.3 2 Sudoeste 8 Noroeste 0 -- -- 89
2018-01-12 01:00:00 5 0 Calma 10 Norte 0 -- -- 87
2018-01-12 00:00:00 5.8 8 Norte 13 Norte 0 -- -- 86
2018-01-11 23:00:00 6.3 6 Noroeste 9 Noroeste 0 -- -- 83
2018-01-11 22:00:00 6.6 5 Norte 14 Noroeste 0 -- -- 81
2018-01-11 21:00:00 7.8 12 Noroeste 18 Noroeste 0 -- -- 80
2018-01-11 20:00:00 8.3 9 Noroeste 28 Noroeste 0 -- -- 80
2018-01-11 19:00:00 9.4 14 Noroeste 30 Noroeste 0 -- -- 77
2018-01-11 18:00:00 10.7 17 Noroeste 39 Oeste 0 -- -- 73
2018-01-11 17:00:00 10.9 26 Noroeste 45 Oeste 0 -- -- 75
2018-01-11 16:00:00 10.5 21 Noroeste 42 Noroeste 0 -- -- 77
2018-01-11 15:00:00 10.9 27 Noroeste 42 Noroeste 0 -- -- 73
2018-01-11 14:00:00 11 24 Noroeste 43 Noroeste 0 -- -- 71
2018-01-11 13:00:00 9.7 23 Noroeste 38 Noroeste 0 -- -- 78
2018-01-11 12:00:00 9.4 18 Noroeste 28 Oeste 0 -- -- 78
2018-01-11 11:00:00 8.1 3 Nordeste 9 Oeste 0 -- -- 86
2018-01-11 10:00:00 6.2 7 Oeste 14 Oeste 0 -- -- 92
2018-01-11 09:00:00 4.4 2 Oeste 9 Noroeste 0 -- -- 94
2018-01-11 08:00:00 4.7 5 Noroeste 10 Noroeste 0 -- -- 93
2018-01-11 07:00:00 5.3 10 Noroeste 16 Noroeste 0 -- -- 93
2018-01-11 06:00:00 5.9 12 Noroeste 24 Oeste 0 -- -- 93
2018-01-11 05:00:00 6.6 15 Noroeste 24 Noroeste 0 -- -- 91
2018-01-11 04:00:00 7.4 17 Noroeste 30 Noroeste 0 -- -- 91
2018-01-11 03:00:00 7.4 10 Noroeste 19 Oeste 0 -- -- 91
2018-01-11 02:00:00 8.2 9 Oeste 22 Oeste 0 -- -- 88
2018-01-11 01:00:00 9 13 Oeste 27 Noroeste 0 -- -- 86
2018-01-11 00:00:00 10 11 Noroeste 31 Noroeste 0 -- -- 87
2018-01-10 23:00:00 10.7 19 Noroeste 55 Oeste 0 -- -- 83
2018-01-10 22:00:00 12.2 22 Oeste 44 Oeste 0 -- -- 79
2018-01-10 21:00:00 12 18 Oeste 40 Oeste 0 -- -- 85
2018-01-10 20:00:00 12.2 21 Sudoeste 34 Sudoeste 0 -- -- 82
2018-01-10 19:00:00 12.3 13 Sudoeste 24 Oeste 0 -- -- 81
2018-01-10 18:00:00 13.7 4 Sudoeste 34 Oeste 0 -- -- 75
2018-01-10 17:00:00 13.7 10 Oeste 19 Oeste 0 -- -- 74
2018-01-10 16:00:00 12.5 10 Noroeste 26 Noroeste 0 -- -- 79
2018-01-10 15:00:00 12.4 22 Noroeste 33 Oeste 0 -- -- 78
2018-01-10 14:00:00 11.9 11 Noroeste 20 Oeste 0 -- -- 79
2018-01-10 13:00:00 11.7 16 Oeste 24 Oeste 0 -- -- 78
2018-01-10 12:00:00 10.7 14 Oeste 22 Noroeste 0 -- -- 83
2018-01-10 11:00:00 9.9 10 Noroeste 21 Noroeste 0 -- -- 89
2018-01-10 10:00:00 9.1 8 Noroeste 28 Oeste 0 -- -- 92
2018-01-10 09:00:00 9.1 13 Noroeste 28 Oeste 0 -- -- 91
2018-01-10 08:00:00 9.6 20 Oeste 34 Oeste 0.2 -- -- 90
2018-01-10 07:00:00 10.2 18 Oeste 27 Oeste 0 -- -- 92
2018-01-10 06:00:00 10.1 12 Oeste 31 Oeste 0 -- -- 89
2018-01-10 05:00:00 9.7 16 Sudoeste 27 Sudoeste 0 -- -- 93
2018-01-10 04:00:00 9.6 16 Sudoeste 27 Sudoeste 0 -- -- 92
2018-01-10 03:00:00 9.9 21 Sur 32 Sudoeste 0 -- -- 91
2018-01-10 02:00:00 10.1 24 Sur 42 Sur 0 -- -- 91
2018-01-10 01:00:00 10 28 Sur 43 Sur 0 -- -- 90
2018-01-10 00:00:00 9.9 20 Sur 36 Sur 0 -- -- 91
2018-01-09 23:00:00 9.6 26 Sur 42 Sur 0 -- -- 92
2018-01-09 22:00:00 9 18 Sur 26 Sur 0 -- -- 94
2018-01-09 21:00:00 8.5 16 Sur 25 Sur 0 -- -- 94
2018-01-09 20:00:00 8 14 Sur 28 Sudeste 0.6 -- -- 93
2018-01-09 19:00:00 7.6 12 Sudeste 17 Sudeste 1.6 -- -- 92
2018-01-09 18:00:00 7.9 6 Sur 10 Sur 0 -- -- 88
2018-01-09 17:00:00 8.1 8 Sur 13 Sur 0.2 -- -- 88
2018-01-09 16:00:00 7.6 8 Sudeste 11 Sudeste 0.2 -- -- 92
2018-01-09 15:00:00 6.8 2 Sudoeste 6 Sudoeste 0 -- -- 95
2018-01-09 14:00:00 6 2 Sur 4 Sudoeste 0 -- -- 97
2018-01-09 13:00:00 4.6 2 Sudoeste 9 Sudoeste 0 -- -- 97
2018-01-09 12:00:00 3.3 0 Calma 5 Sudoeste 0 -- -- 97
2018-01-09 11:00:00 2.2 3 Sudoeste 5 Sudoeste 0 -- -- 97
2018-01-09 10:00:00 0.9 0 Calma 8 Oeste 0 -- -- 98
2018-01-09 09:00:00 -0.3 0 Calma 4 Sudoeste 0 -- -- 97
2018-01-09 08:00:00 -0.3 0 Calma 3 Sudeste 0 -- -- 97
2018-01-09 07:00:00 -0.5 0 Calma -- -- 0 -- -- 96
2018-01-09 06:00:00 0.3 3 Sudeste 4 Sudeste 0 -- -- 96
2018-01-09 05:00:00 0.4 0 Calma 4 Sudoeste 0 -- -- 96
2018-01-09 04:00:00 1.1 0 Calma 2 Norte 0 -- -- 96
2018-01-09 03:00:00 1.1 0 Calma 2 Sudoeste 0 -- -- 95
2018-01-09 02:00:00 1.5 0 Calma 4 Noroeste 0 -- -- 95
2018-01-09 01:00:00 1.7 3 Nordeste 9 Sur 0 -- -- 94
2018-01-09 00:00:00 2.4 6 Sur 8 Sur 0 -- -- 93
2018-01-08 23:00:00 3.8 2 Sudoeste 5 Noroeste 0 -- -- 92
2018-01-08 22:00:00 4.5 0 Calma 5 Sur 0 -- -- 91
2018-01-08 21:00:00 5.6 5 Sur 8 Sudoeste 0.2 -- -- 90
2018-01-08 20:00:00 6.2 3 Oeste 6 Oeste 0.2 -- -- 89
2018-01-08 19:00:00 6.7 0 Calma 13 Sudoeste 0.2 -- -- 84
2018-01-08 18:00:00 6.9 8 Sudoeste 14 Sudoeste 0 -- -- 81
2018-01-08 17:00:00 7.3 7 Sur 13 Oeste 0 -- -- 80
2018-01-08 16:00:00 7.6 9 Oeste 16 Oeste 0 -- -- 79
2018-01-08 15:00:00 7.4 10 Sur 24 Sur 0 -- -- 80
2018-01-08 14:00:00 6.7 17 Sur 27 Sur 0 -- -- 82
2018-01-08 13:00:00 6 19 Este 29 Este 0.4 -- -- 92
2018-01-08 12:00:00 4.1 9 Sudeste 31 Sudeste 1.6 -- -- 93
2018-01-08 11:00:00 4.5 13 Este 20 Este 2.2 -- -- 92
2018-01-08 10:00:00 4.6 9 Sudeste 20 Este 2 -- -- 91
2018-01-08 09:00:00 4.9 6 Este 13 Este 0.2 -- -- 87
2018-01-08 08:00:00 4.9 9 Este 15 Este 0 -- -- 87
2018-01-08 07:00:00 4.2 2 Este 8 Este 0 -- -- 92
2018-01-08 06:00:00 3.7 3 Sudeste 5 Nordeste 0 -- -- 94
2018-01-08 05:00:00 3.7 2 Noroeste 8 Oeste 0 -- -- 94
2018-01-08 04:00:00 3.7 5 Sur 8 Sudeste 0 -- -- 93
2018-01-08 03:00:00 3.7 2 Nordeste 6 Noroeste 0 -- -- 93
2018-01-08 02:00:00 3.7 2 Nordeste 5 Sur 0 -- -- 93
2018-01-08 01:00:00 3.7 3 Sur 9 Sudeste 0 -- -- 92
2018-01-08 00:00:00 3.9 3 Este 7 Este 0 -- -- 91
2018-01-07 23:00:00 4 2 Nordeste 8 Este 0 -- -- 92
2018-01-07 22:00:00 4 0 Calma 6 Oeste 0 -- -- 91
2018-01-07 21:00:00 4.1 3 Sudeste 8 Sudeste 0 -- -- 90
2018-01-07 20:00:00 4.3 3 Sudeste 7 Sudeste 0 -- -- 88
2018-01-07 19:00:00 4.4 0 Calma 15 Oeste 0 -- -- 86
2018-01-07 18:00:00 4.8 7 Oeste 15 Oeste 0 -- -- 83
2018-01-07 17:00:00 5.1 9 Sudoeste 21 Oeste 0.2 -- -- 82
2018-01-07 16:00:00 5.6 5 Sudoeste 14 Oeste 0 -- -- 79
2018-01-07 15:00:00 5.4 10 Oeste 19 Sudoeste 0 -- -- 77
2018-01-07 14:00:00 5.5 8 Sudoeste 16 Sur 0 -- -- 80
2018-01-07 13:00:00 4.6 5 Sur 10 Sudeste 0 -- -- 81
2018-01-07 12:00:00 3.8 6 Sudeste 10 Sur 0 -- -- 84
2018-01-07 11:00:00 3.3 2 Sur 6 Sudoeste 0 -- -- 87
2018-01-07 10:00:00 2.2 6 Sudoeste 11 Oeste 0 -- -- 91
2018-01-07 09:00:00 0.1 4 Sudeste 8 Este 0 -- -- 93
2018-01-07 08:00:00 -0.4 0 Calma 5 Oeste 0 -- -- 92
2018-01-07 07:00:00 0.3 0 Calma 4 Nordeste 0 -- -- 90
2018-01-07 06:00:00 0.5 3 Sudeste 7 Sur 0 -- -- 90
2018-01-07 05:00:00 1.4 3 Sur 12 Sudoeste 0 -- -- 86
2018-01-07 04:00:00 2.7 9 Sudoeste 17 Oeste 0 -- -- 82
2018-01-07 03:00:00 3.2 12 Sudoeste 19 Sudoeste 0 -- -- 79
2018-01-07 02:00:00 2.8 6 Sudoeste 15 Oeste 0 -- -- 81
2018-01-07 01:00:00 3.5 11 Sudoeste 19 Oeste 0 -- -- 78
2018-01-07 00:00:00 4.2 8 Oeste 17 Oeste 0 -- -- 73
2018-01-06 23:00:00 4.6 11 Oeste 15 Oeste 0 -- -- 74
2018-01-06 22:00:00 5.8 12 Noroeste 23 Noroeste 0 -- -- 71
2018-01-06 21:00:00 6.3 18 Noroeste 27 Noroeste 0 -- -- 73
2018-01-06 20:00:00 6.4 11 Oeste 21 Oeste 0 -- -- 75
2018-01-06 19:00:00 6.8 12 Oeste 33 Oeste 0 -- -- 72
2018-01-06 18:00:00 7.5 22 Oeste 38 Oeste 0 -- -- 69
2018-01-06 17:00:00 8.6 18 Oeste 42 Oeste 0 -- -- 68
2018-01-06 16:00:00 8.7 27 Noroeste 42 Noroeste 0 -- -- 72
2018-01-06 15:00:00 7.2 24 Oeste 37 Noroeste 0 -- -- 85
2018-01-06 14:00:00 6.8 24 Noroeste 37 Noroeste 0 -- -- 92
2018-01-06 13:00:00 5.8 21 Oeste 30 Oeste 0.4 -- -- 94
2018-01-06 12:00:00 5.3 9 Noroeste 17 Norte 0 -- -- 95
2018-01-06 11:00:00 4.4 10 Norte 32 Noroeste 1.2 -- -- 95
2018-01-06 10:00:00 4.1 16 Noroeste 35 Noroeste 5.8 -- -- 95
2018-01-06 09:00:00 5.8 21 Noroeste 32 Noroeste 3.8 -- -- 95
2018-01-06 08:00:00 7 11 Norte 17 Norte 4 -- -- 94
2018-01-06 07:00:00 7.4 3 Este 10 Sudeste 1.2 -- -- 93
2018-01-06 06:00:00 7.1 6 Sur 41 Sudoeste 1.8 -- -- 92
2018-01-06 05:00:00 7.6 31 Sudoeste 66 Sudoeste 4.4 -- -- 90
2018-01-06 04:00:00 10.9 21 Sur 42 Sur 0 -- -- 81
2018-01-06 03:00:00 10.8 25 Sur 41 Sur 0 -- -- 86
2018-01-06 02:00:00 10.7 17 Sur 32 Sur 0 -- -- 86
2018-01-06 01:00:00 10.8 19 Sur 29 Sur 0 -- -- 84
2018-01-06 00:00:00 10.7 16 Sudeste 23 Sudeste 0 -- -- 80
2018-01-05 23:00:00 11.3 14 Sur 32 Sudeste 0 -- -- 73
2018-01-05 22:00:00 11.5 21 Sur 41 Sur 0 -- -- 72
2018-01-05 21:00:00 11.6 15 Sur 35 Sudoeste 0 -- -- 69
2018-01-05 20:00:00 11.3 15 Sur 38 Sudoeste 0 -- -- 71
2018-01-05 19:00:00 12.7 8 Sur 15 Sur 0 -- -- 71
2018-01-05 18:00:00 13.7 10 Sudoeste 28 Oeste 0 -- -- 68
2018-01-05 17:00:00 14.4 18 Sudoeste 31 Oeste 0 -- -- 62
2018-01-05 16:00:00 15.2 16 Oeste 28 Oeste 0 -- -- 61
2018-01-05 15:00:00 13.5 7 Sur 17 Sur 0 -- -- 75
2018-01-05 14:00:00 12.4 4 Sur 8 Sur 0 -- -- 83
2018-01-05 13:00:00 11.4 3 Oeste 9 Noroeste 0 -- -- 85
2018-01-05 12:00:00 11.4 3 Noroeste 9 Noroeste 0 -- -- 84
2018-01-05 11:00:00 10.9 5 Norte 7 Norte 0 -- -- 92
2018-01-05 10:00:00 10.4 4 Norte 15 Oeste 0 -- -- 96
2018-01-05 09:00:00 9.8 5 Este 7 Este 0 -- -- 96
2018-01-05 08:00:00 9.8 3 Norte 6 Este 0 -- -- 96
2018-01-05 07:00:00 9.9 3 Sudeste 4 Este 0 -- -- 96
2018-01-05 06:00:00 10.1 0 Calma 5 Nordeste 0 -- -- 96
2018-01-05 05:00:00 10.1 4 Nordeste 8 Nordeste 0 -- -- 96
2018-01-05 04:00:00 10.2 5 Nordeste 9 Nordeste 0 -- -- 95
2018-01-05 03:00:00 9.9 6 Norte 8 Norte 0 -- -- 95
2018-01-05 02:00:00 10 2 Sudeste 4 Nordeste 0 -- -- 95
2018-01-05 01:00:00 10 2 Oeste 5 Noroeste 0 -- -- 94
2018-01-05 00:00:00 10.4 0 Calma 3 Sudeste 0 -- -- 94
2018-01-04 23:00:00 10.4 2 Sudeste 3 Sur 0 -- -- 93
2018-01-04 22:00:00 10.7 0 Calma 4 Nordeste 0 -- -- 92
2018-01-04 21:00:00 10.8 3 Noroeste 5 Noroeste 0 -- -- 91
2018-01-04 20:00:00 11.1 2 Norte 15 Norte 0 -- -- 89
2018-01-04 19:00:00 11.2 6 Norte 16 Norte 0 -- -- 89
2018-01-04 18:00:00 11.3 7 Noroeste 14 Noroeste 0 -- -- 88
2018-01-04 17:00:00 11.6 6 Norte 16 Noroeste 0 -- -- 88
2018-01-04 16:00:00 11.6 11 Norte 15 Norte 0 -- -- 89
2018-01-04 15:00:00 11.3 11 Norte 23 Noroeste 0 -- -- 91
2018-01-04 14:00:00 10.9 13 Norte 18 Norte 0 -- -- 94
2018-01-04 13:00:00 10.3 9 Norte 16 Norte 0 -- -- 97
2018-01-04 12:00:00 9.4 4 Norte 7 Norte 0 -- -- 97
2018-01-04 11:00:00 8.5 3 Norte 5 Noroeste 0 -- -- 98
2018-01-04 10:00:00 7.7 3 Sur 5 Sur 0 -- -- 97
2018-01-04 09:00:00 6.9 0 Calma 3 Sudeste 0 -- -- 97
2018-01-04 08:00:00 6.5 3 Sur 4 Sur 0 -- -- 97
2018-01-04 07:00:00 5.9 0 Calma 5 Este 0 -- -- 97
2018-01-04 06:00:00 5.4 2 Nordeste 7 Norte 0 -- -- 97
2018-01-04 05:00:00 4.8 2 Noroeste 6 Sudeste 0 -- -- 95
2018-01-04 04:00:00 6.5 5 Sur 7 Sur 0 -- -- 95
2018-01-04 03:00:00 7.3 4 Sur 6 Norte 0 -- -- 95
2018-01-04 02:00:00 7.6 5 Nordeste 13 Norte 0 -- -- 95
2018-01-04 01:00:00 6.4 7 Norte 9 Norte 0 -- -- 94
2018-01-04 00:00:00 7.2 5 Nordeste 6 Nordeste 0 -- -- 91
2018-01-03 23:00:00 8.8 0 Calma 4 Norte 0 -- -- 92
2018-01-03 22:00:00 9.4 0 Calma 3 Norte 0 -- -- 91
2018-01-03 21:00:00 9.6 2 Norte 11 Noroeste 0 -- -- 91
2018-01-03 20:00:00 10.6 4 Noroeste 5 Noroeste 0 -- -- 86
2018-01-03 19:00:00 11.7 3 Noroeste 9 Nordeste 0 -- -- 83
2018-01-03 18:00:00 12.7 9 Nordeste 27 Norte 0 -- -- 80
2018-01-03 17:00:00 13.7 17 Norte 24 Norte 0 -- -- 76
2018-01-03 16:00:00 14.2 8 Norte 15 Noroeste 0 -- -- 77
2018-01-03 15:00:00 13.9 8 Norte 18 Nordeste 0 -- -- 76
2018-01-03 14:00:00 13.3 8 Norte 21 Norte 0 -- -- 80
2018-01-03 13:00:00 12.7 13 Norte 18 Norte 0 -- -- 81
2018-01-03 12:00:00 11 5 Sudoeste 8 Sudoeste 0 -- -- 87
2018-01-03 11:00:00 9.6 3 Sur 6 Sudoeste 0 -- -- 91
2018-01-03 10:00:00 8.1 0 Calma 8 Sur 0 -- -- 93
2018-01-03 09:00:00 7.6 4 Sur 9 Sur 0 -- -- 92
2018-01-03 08:00:00 8.9 2 Sur 13 Nordeste 0 -- -- 91
2018-01-03 07:00:00 9 4 Norte 12 Nordeste 0 -- -- 94
2018-01-03 06:00:00 8.3 6 Nordeste 12 Nordeste 0 -- -- 94
2018-01-03 05:00:00 7.3 8 Norte 9 Norte 0 -- -- 94
2018-01-03 04:00:00 6.4 0 Calma 5 Sur 0 -- -- 94
2018-01-03 03:00:00 5.7 4 Sudoeste 8 Sudoeste 0 -- -- 94
2018-01-03 02:00:00 5.3 4 Nordeste 9 Norte 0 -- -- 95
2018-01-03 01:00:00 5.1 3 Nordeste 5 Norte 0 -- -- 92
2018-01-03 00:00:00 6.5 5 Nordeste 9 Nordeste 0 -- -- 92
2018-01-02 23:00:00 6.8 2 Nordeste 10 Norte 0 -- -- 90
2018-01-02 22:00:00 7.5 6 Sur 10 Sudeste 0 -- -- 89
2018-01-02 21:00:00 8.4 6 Noroeste 15 Norte 0 -- -- 86
2018-01-02 20:00:00 8.3 12 Norte 14 Norte 0 -- -- 86
2018-01-02 19:00:00 9.8 11 Norte 14 Noroeste 0 -- -- 81
2018-01-02 18:00:00 11.7 9 Norte 26 Norte 0 -- -- 73
2018-01-02 17:00:00 12.7 19 Norte 31 Norte 0 -- -- 68
2018-01-02 16:00:00 13 21 Norte 32 Norte 0 -- -- 68
2018-01-02 15:00:00 13 15 Norte 26 Norte 0 -- -- 69
2018-01-02 14:00:00 12.7 18 Norte 24 Norte 0 -- -- 69
2018-01-02 13:00:00 12.2 13 Norte 21 Norte 0 -- -- 69
2018-01-02 12:00:00 11.2 13 Norte 18 Norte 0 -- -- 75
2018-01-02 11:00:00 6.6 3 Noroeste 6 Nordeste 0 -- -- 89
2018-01-02 10:00:00 3.6 2 Nordeste 6 Nordeste 0 -- -- 96
2018-01-02 09:00:00 0.7 2 Norte 3 Nordeste 0 -- -- 95
2018-01-02 08:00:00 0.8 0 Calma 2 Sudeste 0 -- -- 94
2018-01-02 07:00:00 0.6 0 Calma 3 Norte 0 -- -- 93
2018-01-02 06:00:00 2 0 Calma 5 Sudeste 0 -- -- 95
2018-01-02 05:00:00 1.8 2 Noroeste 8 Sudeste 0 -- -- 91
2018-01-02 04:00:00 2.7 0 Calma 5 Sudoeste 0 -- -- 90
2018-01-02 03:00:00 3.2 3 Sur 6 Norte 0 -- -- 89
2018-01-02 02:00:00 4.3 3 Nordeste 8 Nordeste 0 -- -- 90
2018-01-02 01:00:00 3.8 5 Norte 9 Norte 0 -- -- 92
2018-01-02 00:00:00 4.3 3 Este 6 Este 0 -- -- 89
2018-01-01 23:00:00 5.5 0 Calma 4 Sudeste 0 -- -- 87
2018-01-01 22:00:00 6 5 Sur 10 Nordeste 0 -- -- 83
2018-01-01 21:00:00 7.3 8 Norte 10 Norte 0 -- -- 76
2018-01-01 20:00:00 8.1 2 Este 9 Noroeste 0 -- -- 75
2018-01-01 19:00:00 9.4 4 Noroeste 12 Norte 0 -- -- 72
2018-01-01 18:00:00 11.2 9 Norte 26 Norte 0 -- -- 68
2018-01-01 17:00:00 13.2 17 Norte 23 Norte 0 -- -- 63
2018-01-01 16:00:00 14.1 9 Norte 18 Norte 0 -- -- 59
2018-01-01 15:00:00 14.1 13 Norte 17 Norte 0 -- -- 63
2018-01-01 14:00:00 14.3 9 Noroeste 15 Norte 0 -- -- 54
2018-01-01 13:00:00 11.1 2 Noroeste 10 Oeste 0 -- -- 78
2018-01-01 12:00:00 9.4 4 Sudoeste 7 Sudoeste 0 -- -- 84
2018-01-01 11:00:00 7.3 2 Noroeste 6 Norte 0 -- -- 94
2018-01-01 10:00:00 5 4 Norte 6 Norte 0 -- -- 97
2018-01-01 09:00:00 4 4 Sudeste 8 Este 0 -- -- 98
2018-01-01 08:00:00 2.5 2 Este 8 Sudoeste 0 -- -- 96
2018-01-01 07:00:00 3.7 4 Noroeste 6 Noroeste 0 -- -- 94
2018-01-01 06:00:00 4.9 2 Este 8 Este 0 -- -- 95
2018-01-01 05:00:00 5.5 5 Este 8 Sudeste 0 -- -- 93
2018-01-01 04:00:00 6.7 5 Norte 12 Nordeste 0 -- -- 92
2018-01-01 03:00:00 7.9 8 Nordeste 13 Nordeste 0 -- -- 90
2018-01-01 02:00:00 8.1 10 Norte 15 Norte 0 -- -- 90
2018-01-01 01:00:00 9.6 9 Norte 15 Noroeste 0 -- -- 89
2018-01-01 00:00:00 10.8 14 Noroeste 26 Noroeste 0 -- -- 89
2017-12-31 23:00:00 12.1 18 Noroeste 35 Noroeste 0 -- -- 87
2017-12-31 22:00:00 12.9 24 Noroeste 36 Oeste 0 -- -- 85
2017-12-31 21:00:00 12.6 19 Oeste 31 Oeste 0 -- -- 83
2017-12-31 20:00:00 12.9 15 Oeste 27 Oeste 0 -- -- 81
2017-12-31 19:00:00 13 10 Oeste 25 Oeste 0 -- -- 79
2017-12-31 18:00:00 13.3 15 Oeste 26 Noroeste 0 -- -- 76
2017-12-31 17:00:00 13.6 10 Oeste 27 Oeste 0 -- -- 75
2017-12-31 16:00:00 14 14 Noroeste 27 Oeste 0 -- -- 74
2017-12-31 15:00:00 14.1 17 Oeste 31 Oeste 0 -- -- 72
2017-12-31 14:00:00 14.3 19 Oeste 33 Noroeste 0 -- -- 72
2017-12-31 13:00:00 13.3 10 Oeste 24 Oeste 0 -- -- 89
2017-12-31 12:00:00 12 0 Calma 8 Sudoeste 0 -- -- 97
2017-12-31 11:00:00 10.4 3 Sudeste 9 Sur 0 -- -- 98
2017-12-31 10:00:00 6.8 4 Nordeste 9 Noroeste 0.2 -- -- 97
2017-12-31 09:00:00 5.1 0 Calma 3 Noroeste 0 -- -- 97
2017-12-31 08:00:00 5.5 0 Calma 5 Sudoeste 0 -- -- 97
2017-12-31 07:00:00 5.2 3 Sudoeste 5 Oeste 0 -- -- 97
2017-12-31 06:00:00 4.8 2 Sudoeste 4 Norte 0 -- -- 97
2017-12-31 05:00:00 5 4 Norte 6 Norte 0 -- -- 96
2017-12-31 04:00:00 5.7 0 Calma 5 Oeste 0 -- -- 96
2017-12-31 03:00:00 5 3 Sudoeste 5 Oeste 0 -- -- 96
2017-12-31 02:00:00 6.7 3 Nordeste 5 Noroeste 0 -- -- 94
2017-12-31 01:00:00 6.5 4 Noroeste 5 Noroeste 0 -- -- 94